createdAt,value
2018-10-18T00:01:59.953Z,15.20
2018-10-18T00:04:35.257Z,15.10
2018-10-18T00:07:10.325Z,15.10
2018-10-18T00:09:46.112Z,15.00
2018-10-18T00:12:20.840Z,15.00
2018-10-18T00:14:56.500Z,15.00
2018-10-18T00:17:36.708Z,15.00
2018-10-18T00:20:12.310Z,15.00
2018-10-18T00:22:47.491Z,15.00
2018-10-18T00:25:22.489Z,15.00
2018-10-18T00:30:28.790Z,15.00
2018-10-18T00:33:03.934Z,15.00
2018-10-18T00:35:39.164Z,15.00
2018-10-18T00:38:13.951Z,15.00
2018-10-18T00:40:48.851Z,15.00
2018-10-18T00:43:23.710Z,15.00
2018-10-18T00:45:59.227Z,15.00
2018-10-18T00:48:34.442Z,15.00
2018-10-18T00:51:09.490Z,15.00
2018-10-18T00:53:44.627Z,15.00
2018-10-18T00:56:19.476Z,15.00
2018-10-18T00:58:54.513Z,15.00
2018-10-18T01:01:29.565Z,15.00
2018-10-18T01:04:05.341Z,15.00
2018-10-18T01:06:40.185Z,15.00
2018-10-18T01:09:15.187Z,15.00
2018-10-18T01:11:50.264Z,15.00
2018-10-18T01:14:25.926Z,15.00
2018-10-18T01:17:04.865Z,14.90
2018-10-18T01:19:39.877Z,14.90
2018-10-18T01:22:15.004Z,14.90
2018-10-18T01:24:50.108Z,14.90
2018-10-18T01:27:25.197Z,14.90
2018-10-18T01:30:00.285Z,14.90
2018-10-18T01:32:36.551Z,14.90
2018-10-18T01:35:11.577Z,14.90
2018-10-18T01:37:47.481Z,14.80
2018-10-18T01:40:23.340Z,14.80
2018-10-18T01:42:59.313Z,14.80
2018-10-18T01:45:34.485Z,14.80
2018-10-18T01:48:09.655Z,14.80
2018-10-18T01:50:44.736Z,14.80
2018-10-18T01:53:19.594Z,14.80
2018-10-18T01:55:54.568Z,14.80
2018-10-18T01:58:29.617Z,14.70
2018-10-18T02:01:04.953Z,14.80
2018-10-18T02:03:40.189Z,14.70
2018-10-18T02:06:15.110Z,14.70
2018-10-18T02:08:51.165Z,14.70
2018-10-18T02:11:26.319Z,14.60
2018-10-18T02:14:01.187Z,14.60
2018-10-18T02:16:36.382Z,14.60
2018-10-18T02:19:11.276Z,14.60
2018-10-18T02:21:47.176Z,14.60
2018-10-18T02:24:22.297Z,14.60
2018-10-18T02:26:57.412Z,14.60
2018-10-18T02:29:32.681Z,14.60
2018-10-18T02:32:07.914Z,14.60
2018-10-18T02:34:42.892Z,14.60
2018-10-18T02:37:17.910Z,14.60
2018-10-18T02:39:53.032Z,14.60
2018-10-18T02:42:28.831Z,14.60
2018-10-18T02:45:04.221Z,14.60
2018-10-18T02:47:39.294Z,14.60
2018-10-18T02:50:14.137Z,14.60
2018-10-18T02:52:49.091Z,14.60
2018-10-18T02:55:24.475Z,14.60
2018-10-18T02:57:59.186Z,14.60
2018-10-18T03:00:34.670Z,14.60
2018-10-18T03:03:09.686Z,14.60
2018-10-18T03:05:44.770Z,14.50
2018-10-18T03:08:19.885Z,14.50
2018-10-18T03:10:54.819Z,14.50
2018-10-18T03:13:29.744Z,14.50
2018-10-18T03:16:05.019Z,14.40
2018-10-18T03:18:40.180Z,14.40
2018-10-18T03:21:15.189Z,14.40
2018-10-18T03:23:49.964Z,14.40
2018-10-18T03:26:25.407Z,14.40
2018-10-18T03:29:00.420Z,14.30
2018-10-18T03:31:35.840Z,14.40
2018-10-18T03:34:10.685Z,14.40
2018-10-18T03:36:45.671Z,14.40
2018-10-18T03:39:20.700Z,14.40
2018-10-18T03:41:55.896Z,14.40
2018-10-18T03:44:30.789Z,14.50
2018-10-18T03:47:05.957Z,14.50
2018-10-18T03:49:40.987Z,14.50
2018-10-18T03:52:15.690Z,14.60
2018-10-18T03:54:50.860Z,14.60
2018-10-18T03:57:26.014Z,14.70
2018-10-18T04:00:01.017Z,14.70
2018-10-18T04:02:36.563Z,14.80
2018-10-18T04:05:11.495Z,14.90
2018-10-18T04:07:46.507Z,14.90
2018-10-18T04:10:21.257Z,14.90
2018-10-18T04:12:56.443Z,15.00
2018-10-18T04:15:31.613Z,14.90
2018-10-18T04:18:06.918Z,14.90
2018-10-18T04:20:42.316Z,15.00
2018-10-18T04:23:22.930Z,15.00
2018-10-18T04:25:57.960Z,15.00
2018-10-18T04:28:33.691Z,15.00
2018-10-18T04:31:08.573Z,15.10
2018-10-18T04:33:43.666Z,15.10
2018-10-18T04:36:18.787Z,15.10
2018-10-18T04:38:53.913Z,15.10
2018-10-18T04:41:29.301Z,15.10
2018-10-18T04:44:05.378Z,15.10
2018-10-18T04:46:40.722Z,15.10
2018-10-18T04:49:16.948Z,15.20
2018-10-18T04:51:51.800Z,15.20
2018-10-18T04:54:26.554Z,15.20
2018-10-18T04:57:02.116Z,15.20
2018-10-18T04:59:37.039Z,15.30
2018-10-18T05:02:11.888Z,15.30
2018-10-18T05:04:58.192Z,15.30
2018-10-18T05:07:33.212Z,15.20
2018-10-18T05:10:08.089Z,15.20
2018-10-18T05:12:43.546Z,15.20
2018-10-18T05:15:18.992Z,15.20
2018-10-18T05:17:54.261Z,15.20
2018-10-18T05:20:29.377Z,15.30
2018-10-18T05:23:05.081Z,15.20
2018-10-18T05:25:40.518Z,15.30
2018-10-18T05:28:16.195Z,15.20
2018-10-18T05:30:51.251Z,15.20
2018-10-18T05:33:26.849Z,15.20
2018-10-18T05:36:03.792Z,15.30
2018-10-18T05:38:39.563Z,15.30
2018-10-18T05:41:15.311Z,15.30
2018-10-18T05:43:50.676Z,15.30
2018-10-18T05:46:25.670Z,15.30
2018-10-18T05:49:01.992Z,15.30
2018-10-18T05:51:37.085Z,15.40
2018-10-18T05:54:12.208Z,15.40
2018-10-18T05:56:48.094Z,15.40
2018-10-18T05:59:22.939Z,15.40
2018-10-18T06:01:58.226Z,15.40
2018-10-18T06:04:33.298Z,15.50
2018-10-18T06:07:08.422Z,15.50
2018-10-18T06:09:43.804Z,15.50
2018-10-18T06:12:19.291Z,15.50
2018-10-18T06:14:54.401Z,15.50
2018-10-18T06:17:29.420Z,15.50
2018-10-18T06:20:05.228Z,15.50
2018-10-18T06:22:41.504Z,15.50
2018-10-18T06:25:17.289Z,15.60
2018-10-18T06:27:52.548Z,15.60
2018-10-18T06:30:27.537Z,15.60
2018-10-18T06:33:02.694Z,15.60
2018-10-18T06:35:37.896Z,15.60
2018-10-18T06:38:13.250Z,15.60
2018-10-18T06:40:48.022Z,15.60
2018-10-18T06:43:23.950Z,15.50
2018-10-18T06:45:59.340Z,15.50
2018-10-18T06:48:34.318Z,15.60
2018-10-18T06:51:09.592Z,15.60
2018-10-18T06:53:44.623Z,15.60
2018-10-18T06:56:20.706Z,15.60
2018-10-18T06:58:55.520Z,15.70
2018-10-18T07:01:31.233Z,15.70
2018-10-18T07:04:06.603Z,15.70
2018-10-18T07:06:41.790Z,15.70
2018-10-18T07:09:16.920Z,15.80
2018-10-18T07:11:51.982Z,15.80
2018-10-18T07:14:27.127Z,15.80
2018-10-18T07:17:02.097Z,15.90
2018-10-18T07:19:37.052Z,15.90
2018-10-18T07:22:12.356Z,16.00
2018-10-18T07:24:47.348Z,16.00
2018-10-18T07:27:22.983Z,16.00
2018-10-18T07:29:57.892Z,16.00
2018-10-18T07:32:32.745Z,16.00
2018-10-18T07:35:08.803Z,16.00
2018-10-18T07:37:47.277Z,16.00
2018-10-18T07:40:22.142Z,16.10
2018-10-18T07:42:57.145Z,16.10
2018-10-18T07:45:32.350Z,16.10
2018-10-18T07:48:07.642Z,16.20
2018-10-18T07:50:43.067Z,16.20
2018-10-18T07:53:18.029Z,16.20
2018-10-18T07:55:53.539Z,16.20
2018-10-18T07:58:28.716Z,16.20
2018-10-18T08:01:04.105Z,16.20
2018-10-18T08:03:39.425Z,16.20
2018-10-18T08:06:14.697Z,16.20
2018-10-18T08:08:53.890Z,16.20
2018-10-18T08:11:29.157Z,16.20
2018-10-18T08:14:04.269Z,16.20
2018-10-18T08:16:39.764Z,16.20
2018-10-18T08:19:15.304Z,16.30
2018-10-18T08:21:50.476Z,16.20
2018-10-18T08:24:25.489Z,16.20
2018-10-18T08:27:00.269Z,16.10
2018-10-18T08:29:35.249Z,16.10
2018-10-18T08:32:10.457Z,16.10
2018-10-18T08:34:45.590Z,16.10
2018-10-18T08:37:20.993Z,16.10
2018-10-18T08:39:56.471Z,16.00
2018-10-18T08:42:31.309Z,15.90
2018-10-18T08:45:08.408Z,15.90
2018-10-18T08:47:44.271Z,15.90
2018-10-18T08:50:19.358Z,15.90
2018-10-18T08:52:54.946Z,15.90
2018-10-18T08:55:30.382Z,16.00
2018-10-18T08:58:06.655Z,15.90
2018-10-18T09:00:41.743Z,16.00
2018-10-18T09:03:16.547Z,16.00
2018-10-18T09:05:58.349Z,16.00
2018-10-18T09:08:33.003Z,16.00
2018-10-18T09:11:08.238Z,16.10
2018-10-18T09:13:43.642Z,16.10
2018-10-18T09:16:18.639Z,16.20
2018-10-18T09:18:53.572Z,16.30
2018-10-18T09:21:28.937Z,16.30
2018-10-18T09:24:04.178Z,16.40
2018-10-18T09:26:39.405Z,16.50
2018-10-18T09:29:14.149Z,16.50
2018-10-18T09:31:49.785Z,16.60
2018-10-18T09:34:25.238Z,16.60
2018-10-18T09:37:00.320Z,16.70
2018-10-18T09:39:35.380Z,16.80
2018-10-18T09:42:10.685Z,16.90
2018-10-18T09:44:45.698Z,16.90
2018-10-18T09:47:20.859Z,16.80
2018-10-18T09:49:55.896Z,16.70
2018-10-18T09:52:31.019Z,16.60
2018-10-18T09:55:08.080Z,16.50
2018-10-18T09:57:43.620Z,16.50
2018-10-18T10:00:23.995Z,16.50
2018-10-18T10:03:04.476Z,16.40
2018-10-18T10:05:39.734Z,16.40
2018-10-18T10:08:14.981Z,16.50
2018-10-18T10:10:51.079Z,16.50
2018-10-18T10:13:27.003Z,16.60
2018-10-18T10:16:02.017Z,16.60
2018-10-18T10:18:37.106Z,16.70
2018-10-18T10:21:12.206Z,16.80
2018-10-18T10:23:47.262Z,16.90
2018-10-18T10:26:22.278Z,17.00
2018-10-18T10:28:57.247Z,17.10
2018-10-18T10:31:32.565Z,17.20
2018-10-18T10:34:07.562Z,17.30
2018-10-18T10:36:42.683Z,17.40
2018-10-18T10:39:17.668Z,17.60
2018-10-18T10:41:52.866Z,17.70
2018-10-18T10:44:27.902Z,17.80
2018-10-18T10:47:03.132Z,17.90
2018-10-18T10:49:38.538Z,17.90
2018-10-18T10:52:13.743Z,17.90
2018-10-18T10:54:48.533Z,18.00
2018-10-18T10:57:23.568Z,18.00
2018-10-18T10:59:58.571Z,18.10
2018-10-18T11:02:34.000Z,18.20
2018-10-18T11:05:09.437Z,18.30
2018-10-18T11:07:45.092Z,18.40
2018-10-18T11:10:20.127Z,18.60
2018-10-18T11:12:55.057Z,18.80
2018-10-18T11:15:30.130Z,19.40
2018-10-18T11:20:41.426Z,18.90
2018-10-18T11:23:17.092Z,18.90
2018-10-18T11:25:52.075Z,18.90
2018-10-18T11:28:27.053Z,18.90
2018-10-18T11:31:02.090Z,18.80
2018-10-18T11:33:37.496Z,18.70
2018-10-18T11:36:12.979Z,18.60
2018-10-18T11:38:48.031Z,18.40
2018-10-18T11:41:23.109Z,18.30
2018-10-18T11:43:58.505Z,18.30
2018-10-18T11:46:33.888Z,18.20
2018-10-18T11:49:08.674Z,18.20
2018-10-18T11:51:44.239Z,18.40
2018-10-18T11:54:19.304Z,18.60
2018-10-18T11:56:54.338Z,18.70
2018-10-18T11:59:30.389Z,18.80
2018-10-18T12:02:06.009Z,18.80
2018-10-18T12:04:42.043Z,18.80
2018-10-18T12:07:17.252Z,18.80
2018-10-18T12:09:53.123Z,18.80
2018-10-18T12:12:28.171Z,18.80
2018-10-18T12:15:03.333Z,18.80
2018-10-18T12:17:38.364Z,18.80
2018-10-18T12:20:15.017Z,18.80
2018-10-18T12:22:50.177Z,18.90
2018-10-18T12:25:25.363Z,19.00
2018-10-18T12:28:00.290Z,18.90
2018-10-18T12:30:35.537Z,18.90
2018-10-18T12:33:11.042Z,18.80
2018-10-18T12:35:46.504Z,18.80
2018-10-18T12:38:21.774Z,18.80
2018-10-18T12:40:57.062Z,18.80
2018-10-18T12:43:32.460Z,18.80
2018-10-18T12:46:07.454Z,18.90
2018-10-18T12:48:42.435Z,18.90
2018-10-18T12:51:18.261Z,19.00
2018-10-18T12:53:53.292Z,18.90
2018-10-18T12:56:28.690Z,18.90
2018-10-18T12:59:03.860Z,19.00
2018-10-18T13:01:39.474Z,19.00
2018-10-18T13:04:14.405Z,19.00
2018-10-18T13:06:49.399Z,19.20
2018-10-18T13:09:25.811Z,19.30
2018-10-18T13:12:01.336Z,19.30
2018-10-18T13:14:36.324Z,19.30
2018-10-18T13:17:11.324Z,19.20
2018-10-18T13:19:46.632Z,19.20
2018-10-18T13:22:21.421Z,19.20
2018-10-18T13:24:56.407Z,19.20
2018-10-18T13:27:32.133Z,19.10
2018-10-18T13:30:09.680Z,19.00
2018-10-18T13:32:44.897Z,18.90
2018-10-18T13:35:20.218Z,18.90
2018-10-18T13:37:55.029Z,18.90
2018-10-18T13:40:30.240Z,19.00
2018-10-18T13:43:05.639Z,19.20
2018-10-18T13:45:41.483Z,19.10
2018-10-18T13:48:16.614Z,19.00
2018-10-18T13:50:51.766Z,18.90
2018-10-18T13:53:26.791Z,18.70
2018-10-18T13:56:01.840Z,18.60
2018-10-18T13:58:37.115Z,18.50
2018-10-18T14:01:12.162Z,18.40
2018-10-18T14:03:47.296Z,18.40
2018-10-18T14:06:22.708Z,18.30
2018-10-18T14:08:57.500Z,18.30
2018-10-18T14:11:33.156Z,18.30
2018-10-18T14:14:08.268Z,18.20
2018-10-18T14:16:43.345Z,18.20
2018-10-18T14:19:18.739Z,18.20
2018-10-18T14:21:53.610Z,18.10
2018-10-18T14:24:29.417Z,18.10
2018-10-18T14:27:04.406Z,18.00
2018-10-18T14:29:39.261Z,18.00
2018-10-18T14:32:14.389Z,18.00
2018-10-18T14:34:49.826Z,18.00
2018-10-18T14:37:24.946Z,18.00
2018-10-18T14:39:59.822Z,18.10
2018-10-18T14:42:35.895Z,18.10
2018-10-18T14:45:10.964Z,18.00
2018-10-18T14:47:46.252Z,18.00
2018-10-18T14:50:21.746Z,18.00
2018-10-18T14:52:56.873Z,17.90
2018-10-18T14:55:32.712Z,17.90
2018-10-18T14:58:08.490Z,17.90
2018-10-18T15:00:44.273Z,17.90
2018-10-18T15:03:19.933Z,17.80
2018-10-18T15:05:55.316Z,17.80
2018-10-18T15:08:30.895Z,17.80
2018-10-18T15:11:07.101Z,17.70
2018-10-18T15:13:43.082Z,17.70
2018-10-18T15:16:18.392Z,17.70
2018-10-18T15:18:53.801Z,17.70
2018-10-18T15:21:28.856Z,17.70
2018-10-18T15:24:04.341Z,17.60
2018-10-18T15:26:39.571Z,17.60
2018-10-18T15:29:15.102Z,17.60
2018-10-18T15:31:50.136Z,17.60
2018-10-18T15:34:25.396Z,17.60
2018-10-18T15:37:00.791Z,17.60
2018-10-18T15:39:36.217Z,17.60
2018-10-18T15:42:11.770Z,17.60
2018-10-18T15:44:46.998Z,17.50
2018-10-18T15:47:21.960Z,17.50
2018-10-18T15:49:57.954Z,17.40
2018-10-18T15:52:33.202Z,17.40
2018-10-18T15:55:08.726Z,17.40
2018-10-18T15:57:43.821Z,17.30
2018-10-18T16:00:19.906Z,17.30
2018-10-18T16:02:56.113Z,17.20
2018-10-18T16:05:31.005Z,17.10
2018-10-18T16:08:06.428Z,17.00
2018-10-18T16:10:41.487Z,17.00
2018-10-18T16:13:16.579Z,16.90
2018-10-18T16:15:51.752Z,16.90
2018-10-18T16:18:27.224Z,16.80
2018-10-18T16:21:02.684Z,16.80
2018-10-18T16:23:37.613Z,16.70
2018-10-18T16:26:12.738Z,16.60
2018-10-18T16:28:47.956Z,16.60
2018-10-18T16:31:23.606Z,16.50
2018-10-18T16:33:58.995Z,16.40
2018-10-18T16:36:34.140Z,16.30
2018-10-18T16:39:11.361Z,16.20
2018-10-18T16:41:46.594Z,16.10
2018-10-18T16:44:21.759Z,16.10
2018-10-18T16:46:57.522Z,16.00
2018-10-18T16:49:32.675Z,16.00
2018-10-18T16:52:08.433Z,16.00
2018-10-18T16:54:44.195Z,15.90
2018-10-18T16:57:20.719Z,15.90
2018-10-18T16:59:56.411Z,15.80
2018-10-18T17:02:32.039Z,15.80
2018-10-18T17:05:07.729Z,15.70
2018-10-18T17:07:42.918Z,15.70
2018-10-18T17:10:18.405Z,15.70
2018-10-18T17:12:53.761Z,15.70
2018-10-18T17:15:29.079Z,15.70
2018-10-18T17:18:04.765Z,15.70
2018-10-18T17:20:39.927Z,15.70
2018-10-18T17:23:15.543Z,15.70
2018-10-18T17:25:50.769Z,15.70
2018-10-18T17:28:25.978Z,15.60
2018-10-18T17:31:01.510Z,15.60
2018-10-18T17:33:36.882Z,15.60
2018-10-18T17:36:12.119Z,15.50
2018-10-18T17:38:47.770Z,15.50
2018-10-18T17:41:22.688Z,15.50
2018-10-18T17:43:58.144Z,15.50
2018-10-18T17:46:33.473Z,15.40
2018-10-18T17:49:08.618Z,15.40
2018-10-18T17:51:43.703Z,15.40
2018-10-18T17:54:18.822Z,15.40
2018-10-18T17:56:54.021Z,15.30
2018-10-18T17:59:30.177Z,15.30
2018-10-18T18:02:05.742Z,15.30
2018-10-18T18:04:41.143Z,15.30
2018-10-18T18:07:16.712Z,15.30
2018-10-18T18:09:51.866Z,15.30
2018-10-18T18:12:27.415Z,15.30
2018-10-18T18:15:02.327Z,15.30
2018-10-18T18:17:37.387Z,15.30
2018-10-18T18:20:13.061Z,15.30
2018-10-18T18:22:48.244Z,15.30
2018-10-18T18:25:23.562Z,15.30
2018-10-18T18:27:58.627Z,15.30
2018-10-18T18:30:34.437Z,15.30
2018-10-18T18:33:09.802Z,15.30
2018-10-18T18:35:45.262Z,15.30
2018-10-18T18:38:20.389Z,15.30
2018-10-18T18:40:55.911Z,15.30
2018-10-18T18:43:31.544Z,15.30
2018-10-18T18:46:06.881Z,15.20
2018-10-18T18:48:42.090Z,15.20
2018-10-18T18:51:17.442Z,15.20
2018-10-18T18:53:52.435Z,15.20
2018-10-18T18:56:27.849Z,15.20
2018-10-18T18:59:02.907Z,15.20
2018-10-18T19:01:38.003Z,15.20
2018-10-18T19:04:13.709Z,15.10
2018-10-18T19:06:48.804Z,15.10
2018-10-18T19:09:24.893Z,15.10
2018-10-18T19:12:00.016Z,15.10
2018-10-18T19:14:35.144Z,15.00
2018-10-18T19:17:14.857Z,14.90
2018-10-18T19:19:50.601Z,14.90
2018-10-18T19:22:32.325Z,14.70
2018-10-18T19:25:08.381Z,14.60
2018-10-18T19:27:43.719Z,14.40
2018-10-18T19:30:19.440Z,14.30
2018-10-18T19:32:54.927Z,14.20
2018-10-18T19:35:30.125Z,14.10
2018-10-18T19:38:05.294Z,14.00
2018-10-18T19:40:41.291Z,14.00
2018-10-18T19:43:16.799Z,14.00
2018-10-18T19:45:57.463Z,14.00
2018-10-18T19:48:32.967Z,14.00
2018-10-18T19:51:08.268Z,14.00
2018-10-18T19:53:43.490Z,14.00
2018-10-18T19:56:18.908Z,14.10
2018-10-18T19:58:54.860Z,14.10
2018-10-18T20:01:30.076Z,14.10
2018-10-18T20:04:05.470Z,14.20
2018-10-18T20:06:40.879Z,14.20
2018-10-18T20:09:16.415Z,14.20
2018-10-18T20:11:52.014Z,14.20
2018-10-18T20:14:27.857Z,14.20
2018-10-18T20:17:03.426Z,14.20
2018-10-18T20:19:38.448Z,14.20
2018-10-18T20:22:14.211Z,14.20
2018-10-18T20:24:49.492Z,14.30
2018-10-18T20:27:24.809Z,14.30
2018-10-18T20:29:59.742Z,14.20
2018-10-18T20:32:34.927Z,14.20
2018-10-18T20:35:11.516Z,14.20
2018-10-18T20:37:46.509Z,14.20
2018-10-18T20:40:21.884Z,14.20
2018-10-18T20:42:57.138Z,14.30
2018-10-18T20:45:33.505Z,14.30
2018-10-18T20:48:09.647Z,14.30
2018-10-18T20:50:45.103Z,14.30
2018-10-18T20:53:20.885Z,14.30
2018-10-18T20:55:56.037Z,14.40
2018-10-18T20:58:31.303Z,14.40
2018-10-18T21:01:08.095Z,14.40
2018-10-18T21:03:43.323Z,14.40
2018-10-18T21:06:19.401Z,14.30
2018-10-18T21:08:54.702Z,14.30
2018-10-18T21:11:29.823Z,14.30
2018-10-18T21:14:05.297Z,14.40
2018-10-18T21:16:41.297Z,14.40
2018-10-18T21:19:16.557Z,14.40
2018-10-18T21:21:52.381Z,14.40
2018-10-18T21:24:27.790Z,14.40
2018-10-18T21:27:03.270Z,14.40
2018-10-18T21:29:38.462Z,14.40
2018-10-18T21:32:13.463Z,14.40
2018-10-18T21:34:48.719Z,14.40
2018-10-18T21:37:24.353Z,14.40
2018-10-18T21:40:00.016Z,14.40
2018-10-18T21:42:35.361Z,14.40
2018-10-18T21:45:10.238Z,14.40
2018-10-18T21:47:45.802Z,14.40
2018-10-18T21:50:20.810Z,14.40
2018-10-18T21:52:55.791Z,14.40
2018-10-18T21:55:31.148Z,14.40
2018-10-18T21:58:05.959Z,14.40
2018-10-18T22:00:44.277Z,14.40
2018-10-18T22:03:19.522Z,14.40
2018-10-18T22:05:54.781Z,14.40
2018-10-18T22:08:30.310Z,14.50
2018-10-18T22:11:06.698Z,14.50
2018-10-18T22:13:42.310Z,14.50
2018-10-18T22:16:17.278Z,14.50
2018-10-18T22:18:52.275Z,14.50
2018-10-18T22:21:28.107Z,14.50
2018-10-18T22:24:03.555Z,14.50
2018-10-18T22:26:38.710Z,14.40
2018-10-18T22:29:13.807Z,14.40
2018-10-18T22:31:48.889Z,14.40
2018-10-18T22:34:23.889Z,14.40
2018-10-18T22:36:59.214Z,14.40
2018-10-18T22:39:34.601Z,14.40
2018-10-18T22:42:10.177Z,14.40
2018-10-18T22:44:45.604Z,14.40
2018-10-18T22:47:20.520Z,14.30
2018-10-18T22:49:55.444Z,14.30
2018-10-18T22:52:30.524Z,14.30
2018-10-18T22:55:06.785Z,14.30
2018-10-18T22:57:41.697Z,14.30
2018-10-18T23:00:16.868Z,14.30
2018-10-18T23:02:52.146Z,14.30
2018-10-18T23:05:28.032Z,14.30
2018-10-18T23:08:03.099Z,14.30
2018-10-18T23:10:38.336Z,14.20
2018-10-18T23:13:13.611Z,14.20
2018-10-18T23:15:48.354Z,14.20
2018-10-18T23:18:23.442Z,14.30
2018-10-18T23:20:58.571Z,14.20
2018-10-18T23:23:33.652Z,14.20
2018-10-18T23:26:08.784Z,14.20
2018-10-18T23:28:43.835Z,14.20
2018-10-18T23:31:18.699Z,14.20
2018-10-18T23:33:54.351Z,14.20
2018-10-18T23:36:29.363Z,14.10
2018-10-18T23:39:05.515Z,14.10
2018-10-18T23:41:40.660Z,14.10
2018-10-18T23:44:15.672Z,14.10
2018-10-18T23:46:50.527Z,14.20
2018-10-18T23:49:25.593Z,14.20
2018-10-18T23:52:01.084Z,14.20
2018-10-18T23:54:36.102Z,14.20
2018-10-18T23:57:11.549Z,14.20
2018-10-18T23:59:46.846Z,14.20
